Time;durP1;ratioP1;P1;durP2;ratioP2;P2;SDS_P1;SDS_P2;PMS_P1;PMS_P2;Temp;Humidity;BMP_temperature;BMP_pressure;BME280_temperature;BME280_humidity;BME280_pressure;Samples;Min_cycle;Max_cycle;Signal;HPM_P1;HPM_P2
2021/08/04 00:00:28;;;;;;;9.05;8.18;;;;;;;15.17;100.00;100508.44;3546333;40;20058;-49
2021/08/04 00:02:55;;;;;;;13.15;9.80;;;;;;;15.24;100.00;100520.50;3546144;40;20071;-47
2021/08/04 00:05:23;;;;;;;9.20;8.30;;;;;;;15.39;100.00;100517.13;3546448;40;20051;-48
2021/08/04 00:07:50;;;;;;;9.23;8.38;;;;;;;15.26;100.00;100517.94;3546329;40;20090;-50
2021/08/04 00:10:18;;;;;;;9.18;8.27;;;;;;;15.43;100.00;100515.41;3546403;40;20082;-48
2021/08/04 00:12:45;;;;;;;10.75;9.68;;;;;;;15.03;100.00;100520.41;3546264;40;20058;-47
2021/08/04 00:15:14;;;;;;;15.23;10.23;;;;;;;14.94;100.00;100516.06;3546091;40;20122;-50
2021/08/04 00:17:42;;;;;;;12.88;9.25;;;;;;;14.99;100.00;100519.53;3545788;40;20174;-48
2021/08/04 00:20:10;;;;;;;9.70;8.80;;;;;;;15.28;100.00;100526.53;3546176;40;20089;-51
2021/08/04 00:22:37;;;;;;;10.90;8.45;;;;;;;15.25;100.00;100513.59;3545978;40;20078;-49
2021/08/04 00:25:06;;;;;;;8.68;7.65;;;;;;;15.46;100.00;100523.16;3545893;40;20058;-47
2021/08/04 00:27:33;;;;;;;11.73;7.68;;;;;;;15.26;100.00;100517.94;3546213;40;20062;-53
2021/08/04 00:30:03;;;;;;;8.13;7.43;;;;;;;15.35;100.00;100514.53;3547412;40;20064;-50
2021/08/04 00:32:31;;;;;;;9.82;8.90;;;;;;;15.23;100.00;100523.06;3547326;40;20061;-55
2021/08/04 00:34:58;;;;;;;9.20;7.93;;;;;;;15.39;100.00;100514.53;3547010;40;20464;-53
2021/08/04 00:37:25;;;;;;;8.52;7.68;;;;;;;15.13;100.00;100524.75;3547079;40;20061;-53
2021/08/04 00:39:52;;;;;;;8.43;7.63;;;;;;;14.98;100.00;100520.41;3547647;40;20349;-47
2021/08/04 00:42:20;;;;;;;8.77;7.97;;;;;;;14.99;100.00;100526.41;3547488;40;20065;-50
2021/08/04 00:44:47;;;;;;;10.32;8.40;;;;;;;15.08;100.00;100517.84;3547122;40;20099;-50
2021/08/04 00:47:17;;;;;;;10.73;8.63;;;;;;;15.00;100.00;100523.84;3547639;40;20118;-47
2021/08/04 00:49:44;;;;;;;11.20;9.23;;;;;;;15.00;100.00;100521.25;3547372;40;20409;-50
2021/08/04 00:52:11;;;;;;;10.70;8.68;;;;;;;15.00;100.00;100526.41;3547618;40;20604;-48
2021/08/04 00:54:39;;;;;;;11.50;9.15;;;;;;;14.88;100.00;100517.75;3547267;40;20448;-50
2021/08/04 00:57:06;;;;;;;10.07;8.55;;;;;;;14.86;100.00;100516.88;3546995;40;20078;-53
2021/08/04 00:59:35;;;;;;;11.38;9.00;;;;;;;14.83;100.00;100515.13;3547288;40;20094;-50
2021/08/04 01:02:13;;;;;;;10.15;8.75;;;;;;;14.82;100.00;100518.56;3547397;40;20093;-51
2021/08/04 01:04:52;;;;;;;10.55;9.52;;;;;;;14.82;100.00;100521.16;3547239;40;20442;-47
2021/08/04 01:07:19;;;;;;;11.48;10.40;;;;;;;14.71;100.00;100522.81;3547152;40;20047;-49
2021/08/04 01:09:54;;;;;;;11.25;10.15;;;;;;;14.62;100.00;100522.75;3547108;40;20054;-50
2021/08/04 01:12:26;;;;;;;9.68;8.68;;;;;;;14.91;100.00;100528.09;3547369;40;20046;-48
2021/08/04 01:15:00;;;;;;;8.30;7.47;;;;;;;15.28;100.00;100534.28;3546965;40;20031;-49
2021/08/04 01:17:27;;;;;;;11.52;7.25;;;;;;;15.27;100.00;100532.56;3546617;40;20082;-50
2021/08/04 01:20:33;;;;;;;8.32;7.45;;;;;;;15.30;100.00;100532.56;3546611;40;20083;-48
2021/08/04 01:23:33;;;;;;;9.50;8.50;;;;;;;15.12;100.00;100528.19;3544684;40;20415;-51
2021/08/04 01:26:10;;;;;;;12.30;8.48;;;;;;;15.21;100.00;100524.78;3523684;40;20130;-48
2021/08/04 01:28:42;;;;;;;10.57;8.63;;;;;;;15.09;100.00;100525.59;3546316;40;20329;-48
2021/08/04 01:31:12;;;;;;;11.45;9.65;;;;;;;14.95;100.00;100525.53;3546850;40;20357;-48
2021/08/04 01:33:43;;;;;;;13.40;9.40;;;;;;;15.00;100.00;100529.00;3546734;40;20062;-52
2021/08/04 01:36:11;;;;;;;14.02;9.93;;;;;;;15.10;100.00;100517.00;3546498;40;20085;-49
2021/08/04 01:38:39;;;;;;;10.90;9.75;;;;;;;14.87;100.00;100524.63;3546288;40;20102;-48
2021/08/04 01:41:07;;;;;;;13.25;10.00;;;;;;;14.98;100.00;100522.97;3546342;40;20098;-50
2021/08/04 01:43:35;;;;;;;11.88;9.43;;;;;;;15.32;100.00;100523.09;3546770;40;20078;-48
2021/08/04 01:46:04;;;;;;;15.13;11.27;;;;;;;14.90;100.00;100521.22;3547041;40;20056;-53
2021/08/04 01:48:32;;;;;;;14.80;11.27;;;;;;;14.77;100.00;100522.84;3547220;40;20065;-51
2021/08/04 01:51:02;;;;;;;12.43;11.13;;;;;;;14.78;100.00;100517.69;3546876;40;20058;-52
2021/08/04 01:53:30;;;;;;;12.68;11.43;;;;;;;14.76;100.00;100529.72;3546735;40;20065;-53
2021/08/04 01:55:57;;;;;;;12.75;11.38;;;;;;;14.70;100.00;100521.09;3546567;40;20060;-52
2021/08/04 01:58:25;;;;;;;12.75;10.27;;;;;;;14.86;100.00;100528.06;3546697;40;20077;-50
2021/08/04 02:00:52;;;;;;;11.95;10.73;;;;;;;14.71;100.00;100523.69;3546721;40;20082;-48
2021/08/04 02:03:19;;;;;;;11.98;10.82;;;;;;;14.78;100.00;100528.00;3546893;40;20046;-50
2021/08/04 02:05:46;;;;;;;11.93;10.73;;;;;;;14.87;100.00;100522.03;3546609;40;20452;-48
2021/08/04 02:08:37;;;;;;;11.00;9.90;;;;;;;14.87;100.00;100524.63;3546603;40;20471;-48
2021/08/04 02:11:13;;;;;;;10.50;9.55;;;;;;;15.11;100.00;100529.03;3546662;40;20432;-48
2021/08/04 02:13:51;;;;;;;11.60;10.35;;;;;;;14.95;100.00;100533.25;3546571;40;20106;-56
2021/08/04 02:16:37;;;;;;;11.32;10.02;;;;;;;14.85;100.00;100528.91;3546686;40;20555;-51
2021/08/04 02:19:29;;;;;;;11.50;10.18;;;;;;;15.03;100.00;100530.72;3545073;40;20054;-53
2021/08/04 02:22:03;;;;;;;10.60;9.60;;;;;;;14.96;100.00;100524.66;3546512;40;20078;-48
2021/08/04 02:24:35;;;;;;;11.45;10.20;;;;;;;14.91;100.00;100526.34;3546578;40;20079;-47
2021/08/04 02:27:04;;;;;;;11.40;10.27;;;;;;;14.82;100.00;100525.44;3546346;40;20058;-47
2021/08/04 02:29:35;;;;;;;11.02;9.88;;;;;;;14.95;100.00;100525.53;3546485;40;20292;-52
2021/08/04 02:32:03;;;;;;;12.07;9.82;;;;;;;14.92;100.00;100522.06;3546551;40;20065;-47
2021/08/04 02:34:30;;;;;;;11.73;10.50;;;;;;;14.85;100.00;100526.34;3546483;40;20050;-48
2021/08/04 02:36:57;;;;;;;10.73;9.75;;;;;;;14.94;100.00;100531.53;3546396;40;20437;-49
2021/08/04 02:39:25;;;;;;;14.88;10.02;;;;;;;14.97;100.00;100530.69;3546696;40;20105;-47
2021/08/04 02:41:53;;;;;;;10.88;9.77;;;;;;;14.87;100.00;100524.63;3546389;40;20078;-51
2021/08/04 02:44:21;;;;;;;13.60;11.40;;;;;;;14.90;100.00;100523.78;3546482;40;20082;-52
2021/08/04 02:46:49;;;;;;;11.82;10.73;;;;;;;14.85;100.00;100526.34;3546198;40;20434;-48
2021/08/04 02:49:16;;;;;;;12.15;10.90;;;;;;;14.78;100.00;100530.56;3546031;40;20117;-49
2021/08/04 02:51:44;;;;;;;17.15;13.18;;;;;;;14.83;100.00;100530.59;3545306;40;20046;-51
2021/08/04 02:54:14;;;;;;;14.35;12.68;;;;;;;14.62;100.00;100523.63;3546344;40;20083;-49
2021/08/04 02:56:41;;;;;;;14.75;13.05;;;;;;;14.57;100.00;100525.31;3546557;40;20482;-49
2021/08/04 02:59:08;;;;;;;15.68;14.02;;;;;;;14.52;100.00;100527.00;3546030;40;20055;-50
2021/08/04 03:01:35;;;;;;;16.88;15.18;;;;;;;14.50;100.00;100519.22;3546291;40;20094;-51
2021/08/04 03:04:03;;;;;;;15.27;13.70;;;;;;;14.63;100.00;100517.59;3546072;40;20560;-49
2021/08/04 03:06:30;;;;;;;14.68;13.27;;;;;;;14.66;100.00;100524.50;3546024;40;20082;-50
2021/08/04 03:08:57;;;;;;;16.42;13.02;;;;;;;14.66;100.00;100530.53;3545943;40;20058;-49
2021/08/04 03:11:24;;;;;;;16.27;14.68;;;;;;;14.61;100.00;100529.63;3546273;40;20085;-48
2021/08/04 03:13:51;;;;;;;14.60;13.20;;;;;;;14.69;100.00;100527.09;3546186;40;20404;-51
2021/08/04 03:16:18;;;;;;;16.30;14.38;;;;;;;14.64;100.00;100524.47;3545823;40;20093;-50
2021/08/04 03:18:46;;;;;;;16.17;14.57;;;;;;;14.64;100.00;100524.47;3545816;40;20078;-47
2021/08/04 03:21:12;;;;;;;15.98;14.35;;;;;;;14.64;100.00;100516.75;3546217;40;20082;-48
2021/08/04 03:23:40;;;;;;;14.40;12.57;;;;;;;14.71;100.00;100520.25;3546217;40;20135;-48
2021/08/04 03:26:07;;;;;;;15.85;14.15;;;;;;;14.65;100.00;100517.59;3545583;40;20078;-51
2021/08/04 03:28:35;;;;;;;32.80;15.60;;;;;;;14.66;100.00;100515.06;3544930;40;20050;-50
2021/08/04 03:31:02;;;;;;;17.20;15.23;;;;;;;14.57;100.00;100516.72;3545766;40;20454;-51
2021/08/04 03:33:29;;;;;;;16.67;15.07;;;;;;;14.71;100.00;100527.97;3545792;40;20334;-48
2021/08/04 03:35:56;;;;;;;19.75;16.23;;;;;;;14.62;100.00;100526.19;3545751;40;20090;-50
2021/08/04 03:38:23;;;;;;;17.48;15.57;;;;;;;14.65;100.00;100520.19;3546173;40;20054;-50
2021/08/04 03:40:50;;;;;;;17.52;15.20;;;;;;;14.68;100.00;100520.22;3546366;40;20069;-48
2021/08/04 03:43:17;;;;;;;15.85;13.50;;;;;;;14.76;100.00;100528.88;3545819;40;20474;-51
2021/08/04 03:45:44;;;;;;;15.70;13.95;;;;;;;14.63;100.00;100538.22;3544825;40;20086;-47
2021/08/04 03:48:11;;;;;;;18.25;15.00;;;;;;;14.51;100.00;100536.44;3545353;40;20078;-53
2021/08/04 03:50:38;;;;;;;18.60;15.55;;;;;;;14.46;100.00;100535.47;3545736;40;20062;-53
2021/08/04 03:53:05;;;;;;;17.52;15.73;;;;;;;14.51;100.00;100538.13;3545214;40;20392;-51
2021/08/04 03:55:32;;;;;;;18.30;16.42;;;;;;;14.51;100.00;100536.44;3545304;40;20058;-50
2021/08/04 03:57:59;;;;;;;20.77;15.07;;;;;;;14.65;100.00;100540.81;3545539;40;20539;-50
2021/08/04 04:00:27;;;;;;;17.20;15.48;;;;;;;14.65;100.00;100538.22;3545792;40;20126;-47
2021/08/04 04:02:54;;;;;;;16.98;15.13;;;;;;;14.61;100.00;100536.50;3546093;40;20046;-49
2021/08/04 04:05:21;;;;;;;17.60;15.75;;;;;;;14.44;100.00;100547.50;3547494;40;20170;-48
2021/08/04 04:07:48;;;;;;;16.70;15.07;;;;;;;14.51;100.00;100541.59;3546979;40;20076;-47
2021/08/04 04:10:15;;;;;;;16.83;15.10;;;;;;;14.48;100.00;100539.00;3547239;40;20152;-48
2021/08/04 04:12:42;;;;;;;18.08;15.35;;;;;;;14.53;100.00;100539.03;3546781;40;20066;-49
2021/08/04 04:15:11;;;;;;;18.10;15.45;;;;;;;14.54;100.00;100542.47;3546056;40;20094;-49
2021/08/04 04:17:38;;;;;;;17.48;15.82;;;;;;;14.75;100.00;100538.31;3546967;40;20066;-49
2021/08/04 04:20:05;;;;;;;18.55;16.65;;;;;;;14.51;100.00;100549.31;3546859;40;20090;-51
2021/08/04 04:22:32;;;;;;;19.13;16.60;;;;;;;14.61;100.00;100539.94;3547030;40;20103;-52
2021/08/04 04:25:00;;;;;;;17.95;16.10;;;;;;;14.77;100.00;100538.31;3547300;40;20078;-49
2021/08/04 04:27:27;;;;;;;16.45;14.85;;;;;;;14.80;100.00;100540.06;3547241;40;20079;-51
2021/08/04 04:29:53;;;;;;;14.45;13.15;;;;;;;15.16;100.00;100548.00;3547628;40;20074;-48
2021/08/04 04:32:20;;;;;;;16.80;14.00;;;;;;;15.37;100.00;100551.50;3547265;40;20069;-50
2021/08/04 04:34:48;;;;;;;16.27;14.63;;;;;;;14.99;100.00;100555.63;3545154;40;20082;-51
2021/08/04 04:37:14;;;;;;;15.68;13.88;;;;;;;15.02;100.00;100553.09;3542074;40;20337;-54
2021/08/04 04:39:41;;;;;;;16.13;14.50;;;;;;;15.04;100.00;100560.81;3537486;40;20334;-49
2021/08/04 04:42:09;;;;;;;15.05;13.55;;;;;;;15.20;100.00;100557.44;3542129;40;20086;-48
2021/08/04 04:44:36;;;;;;;16.05;13.85;;;;;;;14.99;100.00;100562.50;3539866;40;20074;-50
2021/08/04 04:47:06;;;;;;;19.02;15.90;;;;;;;14.84;100.00;100562.44;3537397;40;20071;-56
2021/08/04 04:49:33;;;;;;;16.80;15.10;;;;;;;15.05;100.00;100564.25;3537067;40;20098;-50
2021/08/04 04:52:00;;;;;;;18.60;16.75;;;;;;;15.07;100.00;100565.13;3539562;40;20086;-54
2021/08/04 04:54:27;;;;;;;18.58;16.60;;;;;;;14.92;100.00;100568.47;3539453;40;20087;-54
2021/08/04 04:56:54;;;;;;;18.80;16.75;;;;;;;15.04;100.00;100573.72;3537363;40;20050;-52
2021/08/04 04:59:21;;;;;;;17.73;16.00;;;;;;;14.89;100.00;100578.78;3536651;40;20090;-54
2021/08/04 05:01:48;;;;;;;17.17;15.45;;;;;;;14.83;100.00;100579.59;3537371;40;20102;-51
2021/08/04 05:04:16;;;;;;;20.48;18.08;;;;;;;14.81;100.00;100573.56;3537167;40;20095;-56
2021/08/04 05:06:43;;;;;;;20.83;18.25;;;;;;;14.82;100.00;100579.59;3537205;40;20349;-49
2021/08/04 05:09:10;;;;;;;18.92;17.05;;;;;;;15.09;100.00;100584.91;3535591;40;20061;-52
2021/08/04 05:11:37;;;;;;;17.98;16.17;;;;;;;15.07;100.00;100583.16;3537366;40;20078;-51
2021/08/04 05:14:04;;;;;;;18.00;16.00;;;;;;;15.15;100.00;100584.94;3536857;40;20094;-52
2021/08/04 05:16:31;;;;;;;18.30;16.35;;;;;;;15.13;100.00;100589.25;3537036;40;20065;-51
2021/08/04 05:18:58;;;;;;;17.13;15.23;;;;;;;15.34;100.00;100590.19;3537282;40;20050;-52
2021/08/04 05:21:25;;;;;;;22.25;16.35;;;;;;;15.33;100.00;100589.31;3537592;40;20094;-48
2021/08/04 05:23:52;;;;;;;26.95;17.73;;;;;;;15.33;100.00;100584.16;3537159;40;20053;-55
2021/08/04 05:26:21;;;;;;;18.67;16.73;;;;;;;15.32;100.00;100589.31;3537645;40;20352;-52
2021/08/04 05:28:48;;;;;;;20.73;15.82;;;;;;;15.53;100.00;100595.44;3537506;40;20081;-50
2021/08/04 05:31:16;;;;;;;22.25;16.05;;;;;;;15.62;100.00;100596.31;3537067;40;20086;-51
2021/08/04 05:33:43;;;;;;;20.67;15.60;;;;;;;15.73;100.00;100592.97;3536879;40;20302;-54
2021/08/04 05:36:10;;;;;;;18.38;15.35;;;;;;;15.70;100.00;100594.66;3536720;40;20065;-52
2021/08/04 05:38:37;;;;;;;17.10;15.10;;;;;;;15.75;100.00;100595.53;3536789;40;20074;-50
2021/08/04 05:41:04;;;;;;;16.45;14.95;;;;;;;15.94;100.00;100597.31;3537080;40;20055;-50
2021/08/04 05:43:31;;;;;;;17.67;15.90;;;;;;;15.53;100.00;100599.75;3536904;40;20450;-53
2021/08/04 05:45:58;;;;;;;16.63;14.93;;;;;;;15.63;100.00;100596.34;3536698;40;20056;-49
2021/08/04 05:48:25;;;;;;;18.75;15.27;;;;;;;16.03;100.00;100597.31;3537215;40;20062;-50
2021/08/04 05:50:52;;;;;;;17.60;15.90;;;;;;;15.72;100.00;100596.41;3537104;40;20090;-49
2021/08/04 05:53:19;;;;;;;15.60;13.90;;;;;;;16.15;100.00;100593.06;3536968;40;20091;-52
2021/08/04 05:55:46;;;;;;;15.98;14.45;;;;;;;15.88;100.00;100597.31;3537070;40;20328;-55
2021/08/04 05:58:13;;;;;;;17.75;15.00;;;;;;;15.90;100.00;100597.28;3536592;40;20145;-52
2021/08/04 06:00:40;;;;;;;17.63;15.40;;;;;;;15.89;100.00;100600.75;3536801;40;20445;-49
2021/08/04 06:03:07;;;;;;;15.15;13.55;;;;;;;16.10;100.00;100603.38;3536855;40;20062;-53
2021/08/04 06:05:34;;;;;;;13.82;12.43;;;;;;;16.73;100.00;100616.34;3536832;40;20054;-49
2021/08/04 06:08:01;;;;;;;15.15;13.00;;;;;;;16.06;100.00;100601.66;3536777;40;20058;-50
2021/08/04 06:10:28;;;;;;;14.05;12.68;;;;;;;16.47;100.00;100603.41;3536848;40;20070;-53
2021/08/04 06:12:55;;;;;;;15.32;11.73;;;;;;;16.43;100.00;100602.53;3536897;40;20090;-51
2021/08/04 06:15:42;;;;;;;12.88;11.70;;;;;;;17.02;100.00;100613.75;3536496;40;20047;-54
2021/08/04 06:18:09;;;;;;;12.27;11.13;;;;;;;17.33;100.00;100609.31;3536571;40;20079;-49
2021/08/04 06:20:36;;;;;;;10.68;9.60;;;;;;;16.54;100.00;100612.88;3536633;40;20144;-51
2021/08/04 06:23:03;;;;;;;11.32;10.18;;;;;;;16.51;100.00;100616.34;3536327;40;20087;-53
2021/08/04 06:25:30;;;;;;;12.68;11.38;;;;;;;16.35;100.00;100614.59;3535510;40;20082;-51
2021/08/04 06:27:57;;;;;;;12.68;11.48;;;;;;;16.76;100.00;100619.81;3535790;40;20050;-51
2021/08/04 06:30:24;;;;;;;11.38;10.18;;;;;;;17.02;100.00;100618.91;3536687;40;20047;-50
2021/08/04 06:32:51;;;;;;;11.23;9.98;;;;;;;17.38;100.00;100628.31;3536191;40;20047;-50
2021/08/04 06:35:18;;;;;;;13.27;10.75;;;;;;;17.40;100.00;100629.16;3535799;40;20094;-50
2021/08/04 06:37:45;;;;;;;11.07;9.95;;;;;;;17.10;100.00;100634.41;3536064;40;20087;-49
2021/08/04 06:40:13;;;;;;;15.88;10.82;;;;;;;17.11;100.00;100630.97;3536652;40;20054;-53
2021/08/04 06:42:41;;;;;;;11.95;10.68;;;;;;;17.41;100.00;100628.28;3536565;40;20082;-51
2021/08/04 06:45:09;;;;;;;12.90;11.60;;;;;;;17.44;100.00;100632.59;3536618;40;20046;-49
2021/08/04 06:47:36;;;;;;;9.95;8.98;;;;;;;17.56;100.00;100622.19;3536339;40;20051;-52
2021/08/04 06:50:04;;;;;;;11.60;9.07;;;;;;;17.19;100.00;100627.47;3536538;40;20117;-51
2021/08/04 06:52:31;;;;;;;9.90;9.00;;;;;;;17.16;100.00;100629.25;3536476;40;20071;-51
2021/08/04 06:54:58;;;;;;;11.38;9.15;;;;;;;17.62;100.00;100626.50;3536273;40;20047;-49
2021/08/04 06:57:25;;;;;;;9.95;8.40;;;;;;;17.41;100.00;100627.44;3536391;40;20077;-51
2021/08/04 06:59:52;;;;;;;8.35;7.50;;;;;;;17.90;100.00;100625.53;3536222;40;20047;-56
2021/08/04 07:02:19;;;;;;;9.32;7.50;;;;;;;17.32;100.00;100623.13;3536578;40;20346;-53
2021/08/04 07:04:46;;;;;;;10.65;7.50;;;;;;;17.39;100.00;100624.00;3536273;40;20136;-52
2021/08/04 07:07:17;;;;;;;7.97;6.93;;;;;;;17.58;100.00;100625.66;3536313;40;20066;-52
2021/08/04 07:09:44;;;;;;;10.13;8.63;;;;;;;17.47;100.00;100620.53;3536328;40;20086;-52
2021/08/04 07:12:11;;;;;;;9.45;7.53;;;;;;;17.77;100.00;100626.47;3536164;40;20061;-50
2021/08/04 07:14:38;;;;;;;7.72;6.93;;;;;;;18.70;100.00;100625.00;3536055;40;20182;-50
2021/08/04 07:17:06;;;;;;;8.55;6.85;;;;;;;18.74;100.00;100629.28;3536243;40;20050;-52
2021/08/04 07:19:34;;;;;;;11.85;6.85;;;;;;;18.71;100.00;100632.75;3536476;40;20391;-53
2021/08/04 07:22:01;;;;;;;8.48;5.93;;;;;;;18.50;100.00;100623.41;3536376;40;20061;-53
2021/08/04 07:24:28;;;;;;;8.57;6.28;;;;;;;18.47;100.00;100635.53;3536291;40;20082;-53
2021/08/04 07:26:55;;;;;;;6.80;5.20;;;;;;;19.39;100.00;100635.53;3536608;40;20078;-49
2021/08/04 07:29:23;;;;;;;6.60;5.93;;;;;;;19.47;100.00;100635.47;3536597;40;20055;-50
2021/08/04 07:31:50;;;;;;;7.13;5.78;;;;;;;19.54;99.05;100631.91;3536231;40;20054;-49
2021/08/04 07:34:21;;;;;;;8.10;5.38;;;;;;;19.59;99.57;100636.16;3536483;40;20341;-52
2021/08/04 07:36:49;;;;;;;9.68;5.47;;;;;;;20.14;100.00;100628.53;3536342;40;20057;-52
2021/08/04 07:39:17;;;;;;;4.85;4.45;;;;;;;20.63;95.65;100636.47;3537719;40;20090;-52
2021/08/04 07:41:46;;;;;;;6.10;5.30;;;;;;;20.40;94.42;100638.56;3538237;40;20577;-51
2021/08/04 07:44:13;;;;;;;7.53;5.15;;;;;;;21.15;88.86;100638.16;3538079;40;20055;-55
2021/08/04 07:46:52;;;;;;;5.20;4.40;;;;;;;21.25;83.76;100647.50;3537571;40;20042;-53
2021/08/04 07:49:19;;;;;;;6.43;4.68;;;;;;;20.96;88.15;100635.03;3537528;40;20335;-54
2021/08/04 07:51:46;;;;;;;5.93;3.97;;;;;;;20.82;91.23;100644.81;3537387;40;20069;-51
2021/08/04 07:54:13;;;;;;;8.02;4.18;;;;;;;20.91;89.05;100634.25;3537464;40;20138;-53
2021/08/04 07:56:40;;;;;;;4.65;3.90;;;;;;;20.52;87.91;100638.38;3537189;40;20090;-51
2021/08/04 07:59:07;;;;;;;5.63;4.13;;;;;;;19.76;87.97;100637.72;3537132;40;20067;-53
2021/08/04 08:01:38;;;;;;;6.35;4.07;;;;;;;20.19;90.81;100637.13;3537219;40;20058;-49
2021/08/04 08:04:05;;;;;;;6.10;4.15;;;;;;;21.05;93.21;100639.22;3537156;40;20090;-54
2021/08/04 08:06:32;;;;;;;4.78;4.00;;;;;;;21.08;90.72;100637.41;3537228;40;20054;-49
2021/08/04 08:08:59;;;;;;;5.35;3.92;;;;;;;21.21;83.67;100635.41;3537180;40;20054;-51
2021/08/04 08:11:26;;;;;;;8.65;4.55;;;;;;;20.81;87.24;100632.69;3537513;40;20456;-51
2021/08/04 08:13:54;;;;;;;4.30;3.90;;;;;;;20.91;89.26;100634.25;3537167;40;20050;-51
2021/08/04 08:16:22;;;;;;;5.00;3.78;;;;;;;21.03;87.23;100638.34;3537254;40;20062;-51
2021/08/04 08:18:54;;;;;;;4.55;4.15;;;;;;;21.51;87.98;100635.75;3537436;40;20042;-52
2021/08/04 08:21:23;;;;;;;6.40;4.00;;;;;;;22.22;80.81;100635.97;3537499;40;20420;-52
2021/08/04 08:23:51;;;;;;;5.80;4.32;;;;;;;22.16;84.59;100643.09;3537510;40;20137;-52
2021/08/04 08:26:22;;;;;;;5.95;4.15;;;;;;;21.78;85.24;100642.16;3537440;40;20046;-51
2021/08/04 08:28:49;;;;;;;4.78;3.78;;;;;;;22.41;80.46;100645.97;3537364;40;20440;-50
2021/08/04 08:31:16;;;;;;;5.18;3.67;;;;;;;21.85;84.82;100649.78;3537355;40;20082;-49
2021/08/04 08:33:43;;;;;;;5.10;3.78;;;;;;;22.09;84.53;100648.41;3537292;40;20059;-51
2021/08/04 08:36:11;;;;;;;5.95;4.20;;;;;;;21.07;83.54;100645.22;3537433;40;20090;-52
2021/08/04 08:38:38;;;;;;;6.25;4.13;;;;;;;21.41;84.70;100640.28;3537325;40;20057;-49
2021/08/04 08:41:06;;;;;;;4.75;3.83;;;;;;;21.48;81.66;100636.66;3537174;40;20100;-54
2021/08/04 08:43:35;;;;;;;7.47;4.18;;;;;;;20.85;80.96;100630.03;3537408;40;20085;-52
2021/08/04 08:46:03;;;;;;;5.45;4.20;;;;;;;20.93;86.02;100634.22;3537301;40;20091;-50
2021/08/04 08:48:31;;;;;;;4.57;3.85;;;;;;;21.24;82.32;100632.75;3537133;40;20062;-50
2021/08/04 08:50:58;;;;;;;4.63;3.55;;;;;;;22.26;78.40;100637.59;3537241;40;20091;-49
2021/08/04 08:53:25;;;;;;;6.45;4.00;;;;;;;22.43;79.21;100638.97;3537446;40;20094;-50
2021/08/04 08:55:52;;;;;;;3.90;3.58;;;;;;;22.75;76.40;100635.56;3536892;40;20046;-54
2021/08/04 08:58:19;;;;;;;4.82;3.50;;;;;;;23.10;75.20;100639.88;3536972;40;20054;-52
2021/08/04 09:00:46;;;;;;;3.70;3.38;;;;;;;21.83;75.80;100641.16;3537246;40;20078;-49
2021/08/04 09:03:13;;;;;;;5.18;3.95;;;;;;;22.25;79.84;100638.50;3537191;40;20074;-52
2021/08/04 09:05:59;;;;;;;5.25;3.75;;;;;;;23.24;78.26;100639.50;3537041;40;20094;-49
2021/08/04 09:08:28;;;;;;;4.50;3.50;;;;;;;23.30;71.33;100639.34;3537100;40;20047;-50
2021/08/04 09:10:57;;;;;;;4.78;3.53;;;;;;;22.78;68.59;100638.94;3536966;40;20079;-52
2021/08/04 09:13:34;;;;;;;3.58;3.28;;;;;;;22.43;70.24;100636.34;3537234;40;20054;-53
2021/08/04 09:16:07;;;;;;;5.07;3.45;;;;;;;22.50;69.66;100633.53;3536953;40;20038;-54
2021/08/04 09:18:54;;;;;;;2.90;2.70;;;;;;;22.99;68.80;100640.19;3536760;40;20066;-51
2021/08/04 09:21:22;;;;;;;3.65;3.13;;;;;;;22.16;67.40;100633.50;3536877;40;20103;-50
2021/08/04 09:23:52;;;;;;;3.47;3.08;;;;;;;22.75;68.37;100630.34;3536901;40;20094;-49
2021/08/04 09:26:22;;;;;;;2.83;2.63;;;;;;;23.00;69.69;100634.03;3536743;40;20086;-50
2021/08/04 09:28:55;;;;;;;3.25;2.95;;;;;;;23.24;72.45;100634.28;3537222;40;20074;-51
2021/08/04 09:31:48;;;;;;;3.83;3.08;;;;;;;22.85;67.87;100637.88;3537516;40;20083;-52
2021/08/04 09:34:36;;;;;;;3.47;2.97;;;;;;;23.91;68.41;100628.91;3536905;40;20045;-50
2021/08/04 09:37:09;;;;;;;5.43;3.25;;;;;;;23.35;64.37;100633.09;3536888;40;20050;-51
2021/08/04 09:39:42;;;;;;;4.75;2.72;;;;;;;23.75;66.32;100628.50;3536834;40;20058;-50
2021/08/04 09:42:12;;;;;;;3.50;2.85;;;;;;;24.17;64.08;100628.06;3536440;40;20043;-50
2021/08/04 09:44:57;;;;;;;4.43;2.70;;;;;;;24.78;63.10;100626.97;3536795;40;20083;-51
2021/08/04 09:47:26;;;;;;;2.92;2.60;;;;;;;23.60;62.16;100614.94;3536909;40;20087;-49
2021/08/04 09:50:01;;;;;;;6.32;3.15;;;;;;;23.73;63.86;100614.63;3537046;40;20116;-52
2021/08/04 09:52:31;;;;;;;6.47;2.88;;;;;;;24.45;61.93;100622.84;3536822;40;20062;-53
2021/08/04 09:55:17;;;;;;;3.13;2.80;;;;;;;24.65;61.03;100625.69;3536863;40;20067;-50
2021/08/04 09:57:45;;;;;;;;;;;;;;;25.07;59.93;100622.47;3537253;40;20066;-51
2021/08/04 10:00:15;;;;;;;2.63;2.42;;;;;;;25.51;57.46;100617.41;3536443;40;19982;-52
2021/08/04 10:02:45;;;;;;;3.60;2.95;;;;;;;26.11;54.27;100613.34;3536701;40;20123;-51
2021/08/04 10:05:26;;;;;;;4.03;2.28;;;;;;;25.99;52.00;100632.22;3536539;40;20076;-47
2021/08/04 10:08:02;;;;;;;3.92;2.78;;;;;;;26.57;51.30;100625.50;3536799;40;20051;-53
2021/08/04 10:10:40;;;;;;;4.68;3.17;;;;;;;26.30;51.44;100627.47;3537464;40;20086;-53
2021/08/04 10:13:14;;;;;;;2.75;2.13;;;;;;;31.50;46.09;100634.28;3539634;40;20444;-55
2021/08/04 10:15:54;;;;;;;4.53;2.78;;;;;;;29.20;43.31;100628.09;3538279;40;20054;-52
2021/08/04 10:18:27;;;;;;;4.50;2.50;;;;;;;27.76;48.96;100622.03;3536929;40;20081;-49
2021/08/04 10:20:58;;;;;;;3.63;2.30;;;;;;;26.09;52.29;100617.81;3536802;40;20086;-50
2021/08/04 10:23:26;;;;;;;4.38;2.78;;;;;;;26.72;52.20;100629.28;3536605;40;20042;-53
2021/08/04 10:25:56;;;;;;;2.83;2.63;;;;;;;27.13;49.29;100624.88;3536509;40;20090;-47
2021/08/04 10:28:26;;;;;;;4.70;2.50;;;;;;;27.86;46.16;100614.56;3536728;40;20486;-47
2021/08/04 10:30:54;;;;;;;2.50;2.30;;;;;;;28.16;46.13;100614.88;3536604;40;20043;-47
2021/08/04 10:33:23;;;;;;;4.43;3.03;;;;;;;28.22;45.72;100614.56;3536846;40;20059;-47
2021/08/04 10:35:58;;;;;;;3.65;2.75;;;;;;;26.48;48.49;100615.38;3536474;40;20413;-52
2021/08/04 10:38:27;;;;;;;4.00;2.63;;;;;;;28.11;48.10;100615.09;3536425;40;20553;-48
2021/08/04 10:41:17;;;;;;;2.55;2.30;;;;;;;28.03;44.88;100617.25;3537261;40;20047;-48
2021/08/04 10:43:45;;;;;;;4.05;2.90;;;;;;;27.32;47.74;100618.81;3537042;40;20086;-52
2021/08/04 10:46:32;;;;;;;3.47;2.58;;;;;;;27.81;45.91;100614.78;3536264;40;20091;-53
2021/08/04 10:49:05;;;;;;;2.78;2.13;;;;;;;30.38;42.62;100622.47;3536283;40;20034;-51
2021/08/04 10:51:43;;;;;;;2.97;2.38;;;;;;;28.77;43.15;100608.38;3536515;40;20054;-50
2021/08/04 10:54:15;;;;;;;3.50;2.20;;;;;;;31.06;38.12;100624.63;3536618;40;20138;-47
2021/08/04 10:56:42;;;;;;;4.75;2.75;;;;;;;30.59;38.92;100624.78;3536562;40;20380;-48
2021/08/04 10:59:09;;;;;;;5.90;2.60;;;;;;;29.91;39.68;100615.44;3536294;40;20049;-49
2021/08/04 11:01:44;;;;;;;4.18;2.63;;;;;;;31.04;37.44;100610.63;3536581;40;20086;-47
2021/08/04 11:04:43;;;;;;;2.75;2.63;;;;;;;31.32;35.78;100612.47;3536431;40;20054;-53
2021/08/04 11:07:19;;;;;;;2.53;2.33;;;;;;;32.92;35.25;100613.53;3536097;40;20062;-48
2021/08/04 11:09:46;;;;;;;3.70;2.30;;;;;;;31.77;37.14;100615.81;3536324;40;20116;-47
2021/08/04 11:12:16;;;;;;;2.33;2.13;;;;;;;32.27;36.42;100621.44;3535839;40;20079;-48
2021/08/04 11:14:49;;;;;;;5.32;2.60;;;;;;;30.21;38.64;100619.94;3536224;40;20055;-46
2021/08/04 11:17:18;;;;;;;2.90;2.28;;;;;;;27.54;46.03;100601.09;3536231;40;20059;-50
2021/08/04 11:19:57;;;;;;;8.80;2.95;;;;;;;27.84;44.60;100603.28;3536154;40;20062;-47
2021/08/04 11:22:31;;;;;;;2.88;2.50;;;;;;;28.84;42.19;100613.25;3536112;40;20093;-49